createdAt,value
2019-01-09T00:00:18.312Z,0
2019-01-09T00:01:28.243Z,0
2019-01-09T00:02:38.168Z,0
2019-01-09T00:03:48.093Z,0
2019-01-09T00:04:58.024Z,0
2019-01-09T00:06:08.061Z,0
2019-01-09T00:07:17.988Z,0
2019-01-09T00:08:27.917Z,0
2019-01-09T00:09:37.924Z,0
2019-01-09T00:10:47.853Z,0
2019-01-09T00:11:57.881Z,0
2019-01-09T00:13:07.807Z,0
2019-01-09T00:14:17.742Z,0
2019-01-09T00:15:27.676Z,0
2019-01-09T00:16:37.607Z,0
2019-01-09T00:17:47.638Z,0
2019-01-09T00:18:57.563Z,0
2019-01-09T00:20:07.494Z,0
2019-01-09T00:21:17.420Z,0
2019-01-09T00:22:27.353Z,0
2019-01-09T00:23:37.328Z,0
2019-01-09T00:24:47.266Z,0
2019-01-09T00:25:57.197Z,0
2019-01-09T00:27:07.133Z,0
2019-01-09T00:28:17.068Z,0
2019-01-09T00:29:27.112Z,0
2019-01-09T00:30:37.134Z,0
2019-01-09T00:31:47.069Z,0
2019-01-09T00:32:56.997Z,0
2019-01-09T00:34:06.672Z,0
2019-01-09T00:35:16.699Z,0
2019-01-09T00:36:26.639Z,0
2019-01-09T00:37:36.561Z,0
2019-01-09T00:38:47.934Z,0
2019-01-09T00:39:57.861Z,0
2019-01-09T00:41:07.840Z,0
2019-01-09T00:42:17.774Z,0
2019-01-09T00:43:27.702Z,0
2019-01-09T00:44:37.627Z,0
2019-01-09T00:45:47.555Z,0
2019-01-09T00:46:57.499Z,0
2019-01-09T00:48:07.434Z,0
2019-01-09T00:49:17.362Z,0
2019-01-09T00:50:27.286Z,0
2019-01-09T00:51:37.215Z,0
2019-01-09T00:52:47.238Z,0
2019-01-09T00:53:57.179Z,0
2019-01-09T00:55:07.109Z,0
2019-01-09T00:56:17.121Z,0
2019-01-09T00:57:27.057Z,0
2019-01-09T00:58:37.083Z,0
2019-01-09T00:59:47.007Z,0
2019-01-09T01:00:56.939Z,0
2019-01-09T01:02:06.619Z,0
2019-01-09T01:03:16.547Z,0
2019-01-09T01:04:26.329Z,0
2019-01-09T01:05:36.267Z,0
2019-01-09T01:06:46.263Z,0
2019-01-09T01:07:56.215Z,0
2019-01-09T01:09:06.146Z,0
2019-01-09T01:10:16.187Z,0
2019-01-09T01:11:26.111Z,0
2019-01-09T01:12:36.037Z,0
2019-01-09T01:13:45.965Z,0
2019-01-09T01:14:55.887Z,0
2019-01-09T01:16:05.818Z,0
2019-01-09T01:17:15.744Z,0
2019-01-09T01:18:25.414Z,0
2019-01-09T01:19:35.345Z,0
2019-01-09T01:20:45.269Z,0
2019-01-09T01:21:55.243Z,0
2019-01-09T01:23:05.170Z,0
2019-01-09T01:24:15.095Z,0
2019-01-09T01:25:25.020Z,0
2019-01-09T01:26:34.943Z,0
2019-01-09T01:27:44.982Z,0
2019-01-09T01:28:54.930Z,0
2019-01-09T01:30:04.945Z,0
2019-01-09T01:31:14.875Z,0
2019-01-09T01:32:24.802Z,0
2019-01-09T01:33:34.838Z,0
2019-01-09T01:34:44.764Z,0
2019-01-09T01:36:01.927Z,0
2019-01-09T01:37:11.853Z,0
2019-01-09T01:38:21.781Z,0
2019-01-09T01:39:31.807Z,0
2019-01-09T01:40:41.734Z,0
2019-01-09T01:41:51.668Z,0
2019-01-09T01:43:01.599Z,0
2019-01-09T01:44:11.535Z,0
2019-01-09T01:45:21.573Z,0
2019-01-09T01:46:31.250Z,0
2019-01-09T01:47:40.930Z,0
2019-01-09T01:48:50.865Z,0
2019-01-09T01:50:00.965Z,0
2019-01-09T01:51:10.950Z,0
2019-01-09T01:52:20.880Z,0
2019-01-09T01:53:30.808Z,0
2019-01-09T01:54:40.733Z,0
2019-01-09T01:55:50.666Z,0
2019-01-09T01:57:00.650Z,0
2019-01-09T01:58:10.610Z,0
2019-01-09T01:59:20.537Z,0
2019-01-09T02:00:30.468Z,0
2019-01-09T02:01:40.400Z,0
2019-01-09T02:02:50.437Z,0
2019-01-09T02:04:00.363Z,0
2019-01-09T02:05:10.304Z,0
2019-01-09T02:06:20.243Z,0
2019-01-09T02:07:30.167Z,0
2019-01-09T02:08:40.204Z,0
2019-01-09T02:09:50.133Z,0
2019-01-09T02:11:00.060Z,0
2019-01-09T02:12:09.996Z,0
2019-01-09T02:13:19.927Z,0
2019-01-09T02:14:29.922Z,0
2019-01-09T02:15:39.849Z,0
2019-01-09T02:16:49.777Z,0
2019-01-09T02:17:59.769Z,0
2019-01-09T02:19:09.695Z,0
2019-01-09T02:20:19.674Z,0
2019-01-09T02:21:29.650Z,0
2019-01-09T02:22:39.583Z,0
2019-01-09T02:23:49.512Z,0
2019-01-09T02:24:59.507Z,0
2019-01-09T02:26:09.486Z,0
2019-01-09T02:27:19.413Z,0
2019-01-09T02:28:29.362Z,0
2019-01-09T02:29:39.291Z,0
2019-01-09T02:30:49.226Z,0
2019-01-09T02:31:59.218Z,0
2019-01-09T02:33:09.195Z,0
2019-01-09T02:34:19.127Z,0
2019-01-09T02:35:29.060Z,0
2019-01-09T02:36:39.007Z,0
2019-01-09T02:37:49.042Z,0
2019-01-09T02:38:58.985Z,0
2019-01-09T02:40:08.957Z,0
2019-01-09T02:41:18.897Z,0
2019-01-09T02:42:28.572Z,0
2019-01-09T02:43:38.560Z,0
2019-01-09T02:44:48.500Z,0
2019-01-09T02:45:58.441Z,0
2019-01-09T02:47:08.374Z,0
2019-01-09T02:48:18.305Z,0
2019-01-09T02:49:28.336Z,0
2019-01-09T02:50:38.267Z,0
2019-01-09T02:51:48.216Z,0
2019-01-09T02:52:58.156Z,0
2019-01-09T02:54:08.178Z,0
2019-01-09T02:55:18.157Z,0
2019-01-09T02:56:28.124Z,0
2019-01-09T02:57:38.064Z,0
2019-01-09T02:58:48.019Z,0
2019-01-09T02:59:57.971Z,0
2019-01-09T03:01:07.957Z,0
2019-01-09T03:02:17.972Z,0
2019-01-09T03:03:27.648Z,0
2019-01-09T03:04:37.607Z,0
2019-01-09T03:05:47.554Z,0
2019-01-09T03:06:57.613Z,0
2019-01-09T03:08:07.558Z,0
2019-01-09T03:09:17.493Z,0
2019-01-09T03:10:27.420Z,0
2019-01-09T03:11:37.349Z,0
2019-01-09T03:12:47.375Z,0
2019-01-09T03:13:57.311Z,0
2019-01-09T03:15:07.601Z,0
2019-01-09T03:16:17.531Z,0
2019-01-09T03:17:27.477Z,0
2019-01-09T03:18:37.511Z,0
2019-01-09T03:19:47.449Z,0
2019-01-09T03:20:57.376Z,0
2019-01-09T03:22:07.313Z,0
2019-01-09T03:23:17.257Z,0
2019-01-09T03:24:27.305Z,0
2019-01-09T03:25:37.246Z,0
2019-01-09T03:26:47.176Z,0
2019-01-09T03:27:57.106Z,0
2019-01-09T03:29:07.078Z,0
2019-01-09T03:30:17.129Z,0
2019-01-09T03:31:27.089Z,0
2019-01-09T03:32:37.055Z,0
2019-01-09T03:33:46.999Z,0
2019-01-09T03:34:56.934Z,0
2019-01-09T03:36:06.713Z,0
2019-01-09T03:37:16.651Z,0
2019-01-09T03:38:26.581Z,0
2019-01-09T03:39:36.518Z,0
2019-01-09T03:40:46.449Z,0
2019-01-09T03:41:56.480Z,0
2019-01-09T03:43:06.408Z,0
2019-01-09T03:44:16.336Z,0
2019-01-09T03:45:26.282Z,0
2019-01-09T03:46:36.213Z,0
2019-01-09T03:47:46.202Z,0
2019-01-09T03:48:56.234Z,0
2019-01-09T03:50:06.164Z,0
2019-01-09T03:51:16.101Z,0
2019-01-09T03:52:26.036Z,0
2019-01-09T03:53:36.093Z,0
2019-01-09T03:54:46.038Z,0
2019-01-09T03:55:55.964Z,0
2019-01-09T03:57:05.918Z,0
2019-01-09T03:58:15.855Z,0
2019-01-09T03:59:25.837Z,0
2019-01-09T04:00:35.768Z,0
2019-01-09T04:01:45.717Z,0
2019-01-09T04:02:55.649Z,0
2019-01-09T04:04:05.579Z,0
2019-01-09T04:05:15.558Z,0
2019-01-09T04:06:25.235Z,0
2019-01-09T04:07:35.170Z,0
2019-01-09T04:08:45.093Z,0
2019-01-09T04:09:55.025Z,0
2019-01-09T04:11:05.064Z,0
2019-01-09T04:12:15.005Z,0
2019-01-09T04:13:24.961Z,0
2019-01-09T04:14:34.890Z,0
2019-01-09T04:15:44.820Z,0
2019-01-09T04:16:54.795Z,0
2019-01-09T04:18:04.748Z,0
2019-01-09T04:19:14.679Z,0
2019-01-09T04:20:24.612Z,0
2019-01-09T04:21:34.539Z,0
2019-01-09T04:22:44.535Z,0
2019-01-09T04:23:54.470Z,0
2019-01-09T04:25:04.509Z,0
2019-01-09T04:26:14.445Z,0
2019-01-09T04:27:24.379Z,0
2019-01-09T04:28:34.406Z,0
2019-01-09T04:29:46.663Z,0
2019-01-09T04:30:56.590Z,0
2019-01-09T04:32:06.519Z,0
2019-01-09T04:33:16.451Z,0
2019-01-09T04:34:26.435Z,0
2019-01-09T04:35:36.372Z,0
2019-01-09T04:36:56.091Z,0
2019-01-09T04:38:06.020Z,0
2019-01-09T04:39:15.955Z,0
2019-01-09T04:40:25.994Z,0
2019-01-09T04:41:35.922Z,0
2019-01-09T04:42:45.876Z,0
2019-01-09T04:43:55.803Z,0
2019-01-09T04:45:05.739Z,0
2019-01-09T04:46:15.717Z,0
2019-01-09T04:47:25.650Z,0
2019-01-09T04:48:35.585Z,0
2019-01-09T04:49:45.515Z,0
2019-01-09T04:50:55.441Z,0
2019-01-09T04:52:05.473Z,0
2019-01-09T04:53:15.411Z,0
2019-01-09T04:54:25.348Z,0
2019-01-09T04:55:35.023Z,0
2019-01-09T04:56:44.722Z,0
2019-01-09T04:57:54.754Z,0
2019-01-09T04:59:04.702Z,0
2019-01-09T05:00:14.636Z,0
2019-01-09T05:01:24.563Z,0
2019-01-09T05:02:34.496Z,0
2019-01-09T05:03:44.653Z,0
2019-01-09T05:04:56.729Z,0
2019-01-09T05:06:06.656Z,0
2019-01-09T05:07:16.582Z,0
2019-01-09T05:08:26.515Z,0
2019-01-09T05:09:36.549Z,0
2019-01-09T05:10:46.491Z,0
2019-01-09T05:11:56.431Z,0
2019-01-09T05:13:06.359Z,0
2019-01-09T05:14:16.285Z,0
2019-01-09T05:15:25.807Z,0
2019-01-09T05:16:35.494Z,0
2019-01-09T05:17:45.437Z,0
2019-01-09T05:18:55.121Z,0
2019-01-09T05:20:05.055Z,0
2019-01-09T05:21:14.927Z,0
2019-01-09T05:22:24.865Z,0
2019-01-09T05:23:34.798Z,0
2019-01-09T05:24:45.666Z,0
2019-01-09T05:25:55.779Z,0
2019-01-09T05:27:05.764Z,0
2019-01-09T05:28:15.697Z,0
2019-01-09T05:29:25.634Z,0
2019-01-09T05:30:36.553Z,0
2019-01-09T05:31:46.630Z,0
2019-01-09T05:32:56.615Z,0
2019-01-09T05:34:06.546Z,0
2019-01-09T05:35:16.490Z,0
2019-01-09T05:36:26.431Z,0
2019-01-09T05:37:36.387Z,0
2019-01-09T05:38:46.367Z,0
2019-01-09T05:39:56.297Z,0
2019-01-09T05:41:06.337Z,0
2019-01-09T05:42:16.261Z,0
2019-01-09T05:43:26.284Z,0
2019-01-09T05:44:36.404Z,0
2019-01-09T05:45:46.079Z,0
2019-01-09T05:46:55.760Z,0
2019-01-09T05:48:05.525Z,0
2019-01-09T05:49:15.459Z,0
2019-01-09T05:50:25.497Z,0
2019-01-09T05:51:35.423Z,0
2019-01-09T05:52:45.347Z,0
2019-01-09T05:53:55.272Z,0
2019-01-09T05:55:05.303Z,0
2019-01-09T05:56:15.028Z,0
2019-01-09T05:57:24.950Z,0
2019-01-09T05:58:34.878Z,0
2019-01-09T05:59:44.825Z,0
2019-01-09T06:00:54.756Z,0
2019-01-09T06:02:04.740Z,0
2019-01-09T06:03:14.668Z,0
2019-01-09T06:04:24.592Z,0
2019-01-09T06:05:34.520Z,0
2019-01-09T06:06:44.451Z,0
2019-01-09T06:07:54.485Z,0
2019-01-09T06:09:04.422Z,0
2019-01-09T06:10:14.354Z,0
2019-01-09T06:11:24.298Z,0
2019-01-09T06:12:34.231Z,0
2019-01-09T06:13:44.216Z,0
2019-01-09T06:14:54.148Z,0
2019-01-09T06:16:04.076Z,0
2019-01-09T06:17:14.014Z,0
2019-01-09T06:18:23.945Z,0
2019-01-09T06:19:33.929Z,0
2019-01-09T06:20:43.858Z,0
2019-01-09T06:21:53.796Z,0
2019-01-09T06:23:03.746Z,0
2019-01-09T06:24:13.713Z,0
2019-01-09T06:25:23.813Z,0
2019-01-09T06:26:33.491Z,0
2019-01-09T06:27:43.424Z,0
2019-01-09T06:28:53.353Z,0
2019-01-09T06:30:03.281Z,0
2019-01-09T06:31:13.364Z,0
2019-01-09T06:32:23.305Z,0
2019-01-09T06:33:32.988Z,0
2019-01-09T06:34:42.928Z,0
2019-01-09T06:35:52.997Z,0
2019-01-09T06:37:03.031Z,0
2019-01-09T06:38:12.965Z,0
2019-01-09T06:39:22.900Z,0
2019-01-09T06:40:32.826Z,0
2019-01-09T06:41:42.752Z,0
2019-01-09T06:42:52.775Z,0
2019-01-09T06:44:02.704Z,0
2019-01-09T06:45:12.638Z,0
2019-01-09T06:46:22.576Z,0
2019-01-09T06:47:32.498Z,0
2019-01-09T06:48:42.473Z,0
2019-01-09T06:49:52.407Z,0
2019-01-09T06:51:02.080Z,0
2019-01-09T06:52:12.011Z,0
2019-01-09T06:53:22.031Z,0
2019-01-09T06:54:32.223Z,0
2019-01-09T06:55:42.266Z,0
2019-01-09T06:56:52.233Z,0
2019-01-09T06:58:02.159Z,0
2019-01-09T06:59:12.091Z,0
2019-01-09T07:00:22.117Z,0
2019-01-09T07:01:32.042Z,0
2019-01-09T07:02:41.967Z,0
2019-01-09T07:03:51.916Z,0
2019-01-09T07:05:01.860Z,0
2019-01-09T07:06:11.888Z,0
2019-01-09T07:07:21.817Z,0
2019-01-09T07:08:31.749Z,0
2019-01-09T07:09:41.674Z,0
2019-01-09T07:10:51.619Z,0
2019-01-09T07:12:01.653Z,0
2019-01-09T07:13:11.588Z,0
2019-01-09T07:14:21.521Z,0
2019-01-09T07:15:31.452Z,0
2019-01-09T07:16:41.131Z,0
2019-01-09T07:17:51.172Z,0
2019-01-09T07:19:01.103Z,0
2019-01-09T07:20:11.032Z,0
2019-01-09T07:21:20.963Z,0
2019-01-09T07:22:30.896Z,0
2019-01-09T07:23:40.635Z,0
2019-01-09T07:24:50.564Z,0
2019-01-09T07:26:00.533Z,0
2019-01-09T07:27:10.475Z,0
2019-01-09T07:28:20.404Z,0
2019-01-09T07:29:30.442Z,0
2019-01-09T07:30:40.368Z,0
2019-01-09T07:31:50.295Z,0
2019-01-09T07:33:00.281Z,0
2019-01-09T07:34:10.225Z,0
2019-01-09T07:35:20.254Z,0
2019-01-09T07:36:30.190Z,0
2019-01-09T07:37:47.800Z,0
2019-01-09T07:38:57.738Z,0
2019-01-09T07:40:07.723Z,0
2019-01-09T07:41:17.712Z,0
2019-01-09T07:42:27.639Z,0
2019-01-09T07:43:37.564Z,0
2019-01-09T07:44:47.491Z,0
2019-01-09T07:45:57.416Z,0
2019-01-09T07:47:07.629Z,0
2019-01-09T07:48:17.559Z,0
2019-01-09T07:49:27.489Z,0
2019-01-09T07:50:37.416Z,0
2019-01-09T07:51:47.350Z,0
2019-01-09T07:52:57.330Z,0
2019-01-09T07:54:07.263Z,0
2019-01-09T07:55:17.198Z,0
2019-01-09T07:56:27.124Z,0
2019-01-09T07:57:37.054Z,0
2019-01-09T07:58:47.128Z,0
2019-01-09T07:59:57.061Z,5
2019-01-09T08:01:07.046Z,5
2019-01-09T08:02:16.975Z,5
2019-01-09T08:03:26.903Z,5
2019-01-09T08:04:37.322Z,5
2019-01-09T08:05:47.256Z,5
2019-01-09T08:06:57.190Z,5
2019-01-09T08:08:07.117Z,5
2019-01-09T08:09:17.056Z,10
2019-01-09T08:10:27.031Z,10
2019-01-09T08:11:36.966Z,10
2019-01-09T08:12:46.898Z,10
2019-01-09T08:13:56.824Z,10
2019-01-09T08:15:06.756Z,10
2019-01-09T08:16:16.793Z,10
2019-01-09T08:17:26.723Z,15
2019-01-09T08:18:36.656Z,15
2019-01-09T08:19:46.592Z,15
2019-01-09T08:21:04.964Z,15
2019-01-09T08:22:15.336Z,15
2019-01-09T08:23:25.021Z,15
2019-01-09T08:24:34.981Z,20
2019-01-09T08:25:44.909Z,20
2019-01-09T08:26:54.843Z,20
2019-01-09T08:28:04.821Z,20
2019-01-09T08:29:14.749Z,20
2019-01-09T08:30:24.675Z,25
2019-01-09T08:31:36.126Z,25
2019-01-09T08:32:46.108Z,25
2019-01-09T08:33:56.186Z,25
2019-01-09T08:35:06.112Z,30
2019-01-09T08:36:16.052Z,30
2019-01-09T08:37:25.975Z,30
2019-01-09T08:38:35.897Z,30
2019-01-09T08:39:45.981Z,35
2019-01-09T08:40:55.916Z,35
2019-01-09T08:42:05.848Z,35
2019-01-09T08:43:15.775Z,40
2019-01-09T08:44:25.704Z,40
2019-01-09T08:45:35.786Z,40
2019-01-09T08:46:47.405Z,40
2019-01-09T08:47:57.338Z,40
2019-01-09T08:49:07.271Z,40
2019-01-09T08:50:17.205Z,40
2019-01-09T08:51:27.244Z,40
2019-01-09T08:52:37.482Z,40
2019-01-09T08:53:47.414Z,45
2019-01-09T08:54:57.348Z,45
2019-01-09T08:56:07.281Z,45
2019-01-09T08:57:17.546Z,50
2019-01-09T08:58:27.475Z,50
2019-01-09T08:59:37.411Z,55
2019-01-09T09:00:47.335Z,55
2019-01-09T09:01:57.270Z,55
2019-01-09T09:03:07.347Z,55
2019-01-09T09:04:17.273Z,55
2019-01-09T09:05:27.198Z,60
2019-01-09T09:06:37.128Z,60
2019-01-09T09:07:49.076Z,60
2019-01-09T09:08:59.170Z,65
2019-01-09T09:10:09.185Z,65
2019-01-09T09:11:19.113Z,65
2019-01-09T09:12:29.041Z,65
2019-01-09T09:13:38.967Z,65
2019-01-09T09:14:48.950Z,65
2019-01-09T09:15:58.884Z,65
2019-01-09T09:17:08.850Z,70
2019-01-09T09:18:18.777Z,70
2019-01-09T09:19:28.461Z,70
2019-01-09T09:20:38.398Z,70
2019-01-09T09:21:48.331Z,70
2019-01-09T09:22:58.258Z,70
2019-01-09T09:24:08.186Z,70
2019-01-09T09:25:18.165Z,70
2019-01-09T09:26:28.442Z,70
2019-01-09T09:27:38.374Z,70
2019-01-09T09:28:48.309Z,70
2019-01-09T09:29:58.236Z,70
2019-01-09T09:31:08.162Z,70
2019-01-09T09:32:18.300Z,70
2019-01-09T09:33:28.271Z,75
2019-01-09T09:34:38.214Z,75
2019-01-09T09:35:48.143Z,75
2019-01-09T09:36:58.072Z,75
2019-01-09T09:38:07.855Z,75
2019-01-09T09:39:17.888Z,75
2019-01-09T09:40:27.814Z,75
2019-01-09T09:41:37.743Z,75
2019-01-09T09:42:47.678Z,80
2019-01-09T09:43:57.607Z,80
2019-01-09T09:45:07.601Z,85
2019-01-09T09:46:17.290Z,85
2019-01-09T09:47:27.238Z,85
2019-01-09T09:48:37.276Z,85
2019-01-09T09:49:47.275Z,85
2019-01-09T09:50:57.220Z,85
2019-01-09T09:52:07.162Z,85
2019-01-09T09:53:17.087Z,85
2019-01-09T09:54:28.273Z,85
2019-01-09T09:55:38.201Z,85
2019-01-09T09:56:48.171Z,85
2019-01-09T09:58:05.529Z,85
2019-01-09T09:59:15.712Z,85
2019-01-09T10:00:25.392Z,85
2019-01-09T10:01:35.383Z,85
2019-01-09T10:02:45.310Z,85
2019-01-09T10:03:55.242Z,90
2019-01-09T10:05:05.184Z,90
2019-01-09T10:06:15.111Z,95
2019-01-09T10:07:25.233Z,100
2019-01-09T10:08:39.158Z,110
2019-01-09T10:09:49.085Z,120
2019-01-09T10:10:59.018Z,125
2019-01-09T10:12:08.950Z,130
2019-01-09T10:13:18.736Z,145
2019-01-09T10:14:28.666Z,150
2019-01-09T10:15:38.607Z,150
2019-01-09T10:16:48.542Z,160
2019-01-09T10:17:58.474Z,155
2019-01-09T10:19:08.408Z,165
2019-01-09T10:20:18.423Z,160
2019-01-09T10:21:28.349Z,155
2019-01-09T10:22:38.281Z,140
2019-01-09T10:23:48.332Z,135
2019-01-09T10:24:58.364Z,140
2019-01-09T10:26:08.294Z,135
2019-01-09T10:27:18.223Z,135
2019-01-09T10:28:27.907Z,135
2019-01-09T10:29:37.835Z,140
2019-01-09T10:30:47.871Z,140
2019-01-09T10:31:59.143Z,150
2019-01-09T10:33:09.228Z,150
2019-01-09T10:34:19.161Z,145
2019-01-09T10:35:29.185Z,140
2019-01-09T10:36:39.168Z,140
2019-01-09T10:37:49.117Z,145
2019-01-09T10:38:59.060Z,135
2019-01-09T10:40:08.994Z,145
2019-01-09T10:41:18.929Z,150
2019-01-09T10:42:28.967Z,160
2019-01-09T10:43:38.893Z,180
2019-01-09T10:44:48.828Z,195
2019-01-09T10:45:58.755Z,160
2019-01-09T10:47:08.688Z,175
2019-01-09T10:48:18.722Z,275
2019-01-09T10:49:28.658Z,295
2019-01-09T10:50:38.593Z,245
2019-01-09T10:51:48.525Z,200
2019-01-09T10:52:58.461Z,175
2019-01-09T10:54:10.342Z,200
2019-01-09T10:55:20.271Z,200
2019-01-09T10:56:30.288Z,190
2019-01-09T10:57:40.220Z,170
2019-01-09T10:58:50.159Z,165
2019-01-09T11:00:00.169Z,180
2019-01-09T11:01:10.102Z,175
2019-01-09T11:02:20.032Z,155
2019-01-09T11:03:29.963Z,145
2019-01-09T11:04:39.895Z,180
2019-01-09T11:05:50.132Z,195
2019-01-09T11:07:00.061Z,200
2019-01-09T11:08:10.065Z,160
2019-01-09T11:09:19.995Z,135
2019-01-09T11:10:29.953Z,135
2019-01-09T11:11:39.937Z,135
2019-01-09T11:12:49.877Z,135
2019-01-09T11:13:59.807Z,140
2019-01-09T11:15:09.752Z,135
2019-01-09T11:16:19.720Z,135
2019-01-09T11:17:29.751Z,140
2019-01-09T11:18:39.679Z,170
2019-01-09T11:19:49.608Z,190
2019-01-09T11:20:59.291Z,240
2019-01-09T11:22:09.227Z,240
2019-01-09T11:23:19.400Z,190
2019-01-09T11:24:29.336Z,185
2019-01-09T11:25:39.272Z,180
2019-01-09T11:26:49.204Z,195
2019-01-09T11:27:59.142Z,195
2019-01-09T11:29:09.374Z,240
2019-01-09T11:30:19.305Z,230
2019-01-09T11:31:29.237Z,200
2019-01-09T11:32:39.173Z,215
2019-01-09T11:35:13.732Z,290
2019-01-09T11:36:23.664Z,255
2019-01-09T11:37:33.594Z,295
2019-01-09T11:38:43.530Z,300
2019-01-09T11:39:53.467Z,295
2019-01-09T11:41:03.561Z,280
2019-01-09T11:42:13.496Z,275
2019-01-09T11:43:23.435Z,170
2019-01-09T11:44:33.364Z,165
2019-01-09T11:45:43.299Z,170
2019-01-09T11:46:53.390Z,165
2019-01-09T11:48:03.345Z,160
2019-01-09T11:49:13.280Z,155
2019-01-09T11:50:23.221Z,150
2019-01-09T11:51:33.158Z,145
2019-01-09T11:52:42.841Z,130
2019-01-09T11:53:55.020Z,130
2019-01-09T11:55:04.961Z,120
2019-01-09T11:56:14.901Z,125
2019-01-09T11:57:24.834Z,145
2019-01-09T11:58:34.774Z,140
2019-01-09T11:59:44.813Z,130
2019-01-09T12:00:54.747Z,130
2019-01-09T12:02:04.689Z,130
2019-01-09T12:03:14.374Z,130
2019-01-09T12:04:24.313Z,130
2019-01-09T12:05:45.927Z,130
2019-01-09T12:06:56.460Z,130
2019-01-09T12:08:06.394Z,130
2019-01-09T12:09:16.427Z,130
2019-01-09T12:10:34.641Z,145
2019-01-09T12:11:44.592Z,150
2019-01-09T12:12:54.541Z,140
2019-01-09T12:14:04.472Z,135
2019-01-09T12:15:14.533Z,130
2019-01-09T12:16:24.472Z,135
2019-01-09T12:17:34.406Z,130
2019-01-09T12:18:44.335Z,130
2019-01-09T12:19:54.327Z,140
2019-01-09T12:21:04.359Z,170
2019-01-09T12:22:14.292Z,190
2019-01-09T12:23:24.226Z,145
2019-01-09T12:24:34.243Z,180
2019-01-09T12:25:44.174Z,190
2019-01-09T12:26:54.823Z,210
2019-01-09T12:28:04.753Z,230
2019-01-09T12:29:14.435Z,205
2019-01-09T12:30:24.397Z,185
2019-01-09T12:31:34.345Z,165
2019-01-09T12:32:44.381Z,170
2019-01-09T12:33:54.320Z,175
2019-01-09T12:35:04.251Z,165
2019-01-09T12:36:14.191Z,155
2019-01-09T12:37:24.120Z,145
2019-01-09T12:38:34.051Z,140
2019-01-09T12:39:43.987Z,155
2019-01-09T12:40:53.926Z,170
2019-01-09T12:42:03.858Z,170
2019-01-09T12:43:13.788Z,175
2019-01-09T12:44:23.818Z,195
2019-01-09T12:45:33.771Z,205
2019-01-09T12:46:43.700Z,250
2019-01-09T12:47:53.633Z,325
2019-01-09T12:49:03.564Z,335
2019-01-09T12:50:14.242Z,390
2019-01-09T12:51:24.253Z,385
2019-01-09T12:52:34.186Z,345
2019-01-09T12:53:44.115Z,365
2019-01-09T12:54:54.046Z,450
2019-01-09T12:56:04.080Z,475
2019-01-09T12:57:14.014Z,520
2019-01-09T12:58:25.070Z,460
2019-01-09T12:59:35.000Z,435
2019-01-09T13:00:44.931Z,410
2019-01-09T13:01:54.965Z,375
2019-01-09T13:03:05.009Z,355
2019-01-09T13:04:17.125Z,265
2019-01-09T13:05:27.059Z,295
2019-01-09T13:06:36.991Z,255
2019-01-09T13:07:47.072Z,205
2019-01-09T13:08:57.002Z,235
2019-01-09T13:10:06.932Z,215
2019-01-09T13:11:16.871Z,255
2019-01-09T13:12:26.803Z,230
2019-01-09T13:13:36.789Z,225
2019-01-09T13:14:46.717Z,200
2019-01-09T13:15:56.657Z,170
2019-01-09T13:17:14.424Z,180
2019-01-09T13:18:24.354Z,220
2019-01-09T13:19:34.335Z,270
2019-01-09T13:20:44.278Z,275
2019-01-09T13:21:54.208Z,250
2019-01-09T13:23:04.140Z,205
2019-01-09T13:24:14.073Z,220
2019-01-09T13:25:24.107Z,170
2019-01-09T13:26:34.040Z,105
2019-01-09T13:27:43.972Z,80
2019-01-09T13:28:53.906Z,75
2019-01-09T13:30:03.842Z,70
2019-01-09T13:31:13.768Z,70
2019-01-09T13:32:23.702Z,70
2019-01-09T13:33:33.629Z,70
2019-01-09T13:34:43.302Z,70
2019-01-09T13:35:53.232Z,65
2019-01-09T13:37:03.211Z,65
2019-01-09T13:38:13.167Z,65
2019-01-09T13:39:30.418Z,65
2019-01-09T13:40:41.355Z,65
2019-01-09T13:41:51.403Z,65
2019-01-09T13:43:01.382Z,65
2019-01-09T13:44:11.309Z,60
2019-01-09T13:45:21.249Z,60
2019-01-09T13:46:31.183Z,60
2019-01-09T13:47:41.108Z,55
2019-01-09T13:48:51.187Z,50
2019-01-09T13:50:01.114Z,50
2019-01-09T13:51:12.039Z,50
2019-01-09T13:52:21.996Z,50
2019-01-09T13:53:32.002Z,50
2019-01-09T13:54:41.994Z,50
2019-01-09T13:55:51.926Z,45
2019-01-09T13:57:01.853Z,45
2019-01-09T13:58:11.784Z,40
2019-01-09T13:59:21.716Z,40
2019-01-09T14:00:31.660Z,40
2019-01-09T14:01:41.601Z,35
2019-01-09T14:02:51.534Z,35
2019-01-09T14:04:01.464Z,30
2019-01-09T14:05:13.326Z,30
2019-01-09T14:06:23.303Z,25
2019-01-09T14:07:33.235Z,25
2019-01-09T14:08:43.165Z,25
2019-01-09T14:09:53.092Z,20
2019-01-09T14:11:03.022Z,20
2019-01-09T14:12:13.047Z,20
2019-01-09T14:13:22.973Z,20
2019-01-09T14:14:32.904Z,15
2019-01-09T14:15:42.834Z,15
2019-01-09T14:16:54.930Z,15
2019-01-09T14:18:04.905Z,15
2019-01-09T14:19:14.636Z,10
2019-01-09T14:20:24.634Z,10
2019-01-09T14:21:34.566Z,10
2019-01-09T14:22:46.580Z,10
2019-01-09T14:23:56.915Z,10
2019-01-09T14:25:06.676Z,10
2019-01-09T14:26:16.602Z,5
2019-01-09T14:27:26.530Z,5
2019-01-09T14:28:36.475Z,5
2019-01-09T14:29:46.551Z,5
2019-01-09T14:30:56.481Z,5
2019-01-09T14:32:06.410Z,5
2019-01-09T14:33:16.086Z,5
2019-01-09T14:34:26.010Z,5
2019-01-09T14:35:36.082Z,5
2019-01-09T14:36:46.011Z,5
2019-01-09T14:37:55.940Z,5
2019-01-09T14:39:05.865Z,5
2019-01-09T14:40:15.794Z,5
2019-01-09T14:41:27.099Z,5
2019-01-09T14:42:37.031Z,5
2019-01-09T14:43:46.961Z,5
2019-01-09T14:44:56.885Z,5
2019-01-09T14:46:06.827Z,5
2019-01-09T14:47:16.864Z,5
2019-01-09T14:48:26.788Z,5
2019-01-09T14:49:36.714Z,5
2019-01-09T14:50:47.621Z,0
2019-01-09T14:51:57.715Z,0
2019-01-09T14:53:07.691Z,0
2019-01-09T14:54:17.615Z,0
2019-01-09T14:55:27.538Z,0
2019-01-09T14:56:37.472Z,0
2019-01-09T14:57:47.432Z,0
2019-01-09T14:58:57.521Z,0
2019-01-09T15:00:07.449Z,0
2019-01-09T15:01:17.379Z,0
2019-01-09T15:02:27.310Z,0
2019-01-09T15:03:37.307Z,0
2019-01-09T15:04:47.638Z,0
2019-01-09T15:05:57.835Z,0
2019-01-09T15:07:07.769Z,0
2019-01-09T15:08:17.704Z,0
2019-01-09T15:09:27.663Z,0
2019-01-09T15:10:38.903Z,0
2019-01-09T15:11:48.575Z,0
2019-01-09T15:12:58.502Z,0
2019-01-09T15:14:08.430Z,0
2019-01-09T15:15:18.364Z,0
2019-01-09T15:16:28.402Z,0
2019-01-09T15:17:38.372Z,0
2019-01-09T15:18:48.299Z,0
2019-01-09T15:19:58.223Z,0
2019-01-09T15:21:08.157Z,0
2019-01-09T15:22:18.084Z,0
2019-01-09T15:23:28.016Z,0
2019-01-09T15:24:38.337Z,0
2019-01-09T15:25:49.111Z,0
2019-01-09T15:26:59.092Z,0
2019-01-09T15:28:09.142Z,0
2019-01-09T15:29:19.070Z,0
2019-01-09T15:30:29.030Z,0
2019-01-09T15:31:38.956Z,0
2019-01-09T15:32:50.220Z,0
2019-01-09T15:34:00.202Z,0
2019-01-09T15:35:10.132Z,0
2019-01-09T15:36:20.062Z,0
2019-01-09T15:37:29.986Z,0
2019-01-09T15:38:39.918Z,0
2019-01-09T15:39:49.899Z,0
2019-01-09T15:40:59.837Z,0
2019-01-09T15:42:09.775Z,0
2019-01-09T15:43:19.699Z,0
2019-01-09T15:44:29.627Z,0
2019-01-09T15:45:39.663Z,0
2019-01-09T15:46:49.606Z,0
2019-01-09T15:47:59.548Z,0
2019-01-09T15:49:09.473Z,0
2019-01-09T15:50:19.411Z,0
2019-01-09T15:51:29.441Z,0
2019-01-09T15:52:39.367Z,0
2019-01-09T15:53:49.322Z,0
2019-01-09T15:54:59.247Z,0
2019-01-09T15:56:09.290Z,0
2019-01-09T15:57:19.218Z,0
2019-01-09T15:58:29.150Z,0
2019-01-09T15:59:39.085Z,0
2019-01-09T16:00:49.025Z,0
2019-01-09T16:01:58.957Z,0
2019-01-09T16:03:08.991Z,0
2019-01-09T16:04:18.937Z,0
2019-01-09T16:05:28.866Z,0
2019-01-09T16:06:38.789Z,0
2019-01-09T16:07:48.723Z,0
2019-01-09T16:08:58.761Z,0
2019-01-09T16:10:16.822Z,0
2019-01-09T16:11:26.754Z,0
2019-01-09T16:12:36.683Z,0
2019-01-09T16:13:46.611Z,0
2019-01-09T16:14:56.649Z,0
2019-01-09T16:16:06.333Z,0
2019-01-09T16:17:16.264Z,0
2019-01-09T16:18:26.202Z,0
2019-01-09T16:19:36.138Z,0
2019-01-09T16:20:46.171Z,0
2019-01-09T16:21:55.852Z,0
2019-01-09T16:23:05.789Z,0
2019-01-09T16:24:17.260Z,0
2019-01-09T16:25:27.191Z,0
2019-01-09T16:26:37.217Z,0
2019-01-09T16:27:47.182Z,0
2019-01-09T16:28:57.120Z,0
2019-01-09T16:30:07.060Z,0
2019-01-09T16:31:16.988Z,0
2019-01-09T16:32:26.976Z,0
2019-01-09T16:33:36.924Z,0
2019-01-09T16:34:46.855Z,0
2019-01-09T16:35:56.788Z,0
2019-01-09T16:37:06.728Z,0
2019-01-09T16:38:16.785Z,0
2019-01-09T16:39:35.921Z,0
2019-01-09T16:40:45.867Z,0
2019-01-09T16:41:55.808Z,0
2019-01-09T16:43:05.745Z,0
2019-01-09T16:44:15.782Z,0
2019-01-09T16:45:25.463Z,0
2019-01-09T16:46:35.412Z,0
2019-01-09T16:47:45.365Z,0
2019-01-09T16:48:55.294Z,0
2019-01-09T16:50:05.277Z,0
2019-01-09T16:51:15.022Z,0
2019-01-09T16:52:25.010Z,0
2019-01-09T16:53:35.010Z,0
2019-01-09T16:54:45.012Z,0
2019-01-09T16:55:55.117Z,0
2019-01-09T16:57:05.097Z,0